createdAt,value
2022-10-08T00:00:12.357Z,42.10
2022-10-08T00:03:01.687Z,87.80
2022-10-08T00:05:31.098Z,104.80
2022-10-08T00:08:01.658Z,20.70
2022-10-08T00:10:31.425Z,19.10
2022-10-08T00:13:05.024Z,31.70
2022-10-08T00:15:39.903Z,19.40
2022-10-08T00:18:08.603Z,82.80
2022-10-08T00:20:37.390Z,16.90
2022-10-08T00:23:07.807Z,19.70
2022-10-08T00:25:44.793Z,23.20
2022-10-08T00:28:14.185Z,18.40
2022-10-08T00:30:46.251Z,28.60
2022-10-08T00:33:15.073Z,41.50
2022-10-08T00:35:47.722Z,18.50
2022-10-08T00:38:16.297Z,16.40
2022-10-08T00:40:48.271Z,42.90
2022-10-08T00:43:17.766Z,46.00
2022-10-08T00:45:50.470Z,23.60
2022-10-08T00:48:26.329Z,24.40
2022-10-08T00:50:55.382Z,26.50
2022-10-08T00:53:25.539Z,18.70
2022-10-08T00:55:56.730Z,27.10
2022-10-08T00:58:27.922Z,15.10
2022-10-08T01:00:58.799Z,14.70
2022-10-08T01:06:27.124Z,17.10
2022-10-08T01:09:34.510Z,63.50
2022-10-08T01:12:26.904Z,57.20
2022-10-08T01:15:26.059Z,19.70
2022-10-08T01:18:17.730Z,30.00
2022-10-08T01:20:56.547Z,17.60
2022-10-08T01:23:40.718Z,17.30
2022-10-08T01:26:42.852Z,19.40
2022-10-08T01:29:39.724Z,22.30
2022-10-08T01:32:20.084Z,39.40
2022-10-08T01:35:01.662Z,16.40
2022-10-08T01:37:40.271Z,19.30
2022-10-08T01:40:17.189Z,41.50
2022-10-08T01:42:48.959Z,23.80
2022-10-08T01:45:25.334Z,26.50
2022-10-08T01:47:58.661Z,16.80
2022-10-08T01:50:52.662Z,15.20
2022-10-08T01:53:27.404Z,16.00
2022-10-08T01:56:00.411Z,16.90
2022-10-08T01:58:41.755Z,15.10
2022-10-08T02:01:20.077Z,15.60
2022-10-08T02:04:07.757Z,15.50
2022-10-08T02:06:42.107Z,23.20
2022-10-08T02:09:12.681Z,28.90
2022-10-08T02:11:42.061Z,16.40
2022-10-08T02:14:13.238Z,18.90
2022-10-08T02:16:51.097Z,22.10
2022-10-08T02:19:42.719Z,25.60
2022-10-08T02:22:16.834Z,15.00
2022-10-08T02:24:56.596Z,16.80
2022-10-08T02:27:33.741Z,14.80
2022-10-08T02:30:11.254Z,14.50
2022-10-08T02:33:10.661Z,15.00
2022-10-08T02:35:54.498Z,16.00
2022-10-08T02:38:56.751Z,14.60
2022-10-08T02:41:39.226Z,14.90
2022-10-08T02:44:17.495Z,14.30
2022-10-08T02:46:49.642Z,14.90
2022-10-08T02:49:26.031Z,14.20
2022-10-08T02:51:59.207Z,13.70
2022-10-08T02:54:36.162Z,13.50
2022-10-08T02:57:08.611Z,14.00
2022-10-08T02:59:40.862Z,14.40
2022-10-08T03:02:12.960Z,13.70
2022-10-08T03:04:57.011Z,15.50
2022-10-08T03:07:32.502Z,14.70
2022-10-08T03:10:08.272Z,14.80
2022-10-08T03:12:37.147Z,14.60
2022-10-08T03:15:12.026Z,14.90
2022-10-08T03:17:45.306Z,14.30
2022-10-08T03:20:18.209Z,14.70
2022-10-08T03:22:47.790Z,14.80
2022-10-08T03:25:18.706Z,14.90
2022-10-08T03:27:50.262Z,14.50
2022-10-08T03:30:20.517Z,14.90
2022-10-08T03:32:50.466Z,15.60
2022-10-08T03:35:19.697Z,15.50
2022-10-08T03:37:51.677Z,15.30
2022-10-08T03:40:22.230Z,15.80
2022-10-08T03:42:53.200Z,14.90
2022-10-08T03:45:24.880Z,14.50
2022-10-08T03:47:53.581Z,14.80
2022-10-08T03:50:24.127Z,16.40
2022-10-08T03:52:53.098Z,14.70
2022-10-08T03:55:22.939Z,13.70
2022-10-08T03:57:53.293Z,15.40
2022-10-08T04:00:22.703Z,16.60
2022-10-08T04:02:57.426Z,13.70
2022-10-08T04:05:27.873Z,16.70
2022-10-08T04:08:02.240Z,14.00
2022-10-08T04:10:41.937Z,14.70
2022-10-08T04:13:10.842Z,14.90
2022-10-08T04:15:41.091Z,15.30
2022-10-08T04:18:13.372Z,14.00
2022-10-08T04:20:44.426Z,14.90
2022-10-08T04:23:39.627Z,15.00
2022-10-08T04:28:41.155Z,15.30
2022-10-08T04:31:19.267Z,15.10
2022-10-08T04:33:48.609Z,15.80
2022-10-08T04:36:22.839Z,16.00
2022-10-08T04:38:52.435Z,14.90
2022-10-08T04:41:27.614Z,15.90
2022-10-08T04:44:01.510Z,17.30
2022-10-08T04:46:30.982Z,15.90
2022-10-08T04:49:00.841Z,16.40
2022-10-08T04:51:34.116Z,16.40
2022-10-08T04:54:04.614Z,17.70
2022-10-08T04:56:35.274Z,17.30
2022-10-08T04:59:06.845Z,14.70
2022-10-08T05:01:35.642Z,16.60
2022-10-08T05:04:07.916Z,17.40
2022-10-08T05:06:36.621Z,15.90
2022-10-08T05:09:08.892Z,16.50
2022-10-08T05:11:39.156Z,15.10
2022-10-08T05:14:10.628Z,16.50
2022-10-08T05:16:39.427Z,18.30
2022-10-08T05:19:10.892Z,17.80
2022-10-08T05:21:41.739Z,16.70
2022-10-08T05:24:17.246Z,16.50
2022-10-08T05:27:04.469Z,16.20
2022-10-08T05:32:12.503Z,17.40
2022-10-08T05:34:41.455Z,18.30
2022-10-08T05:37:15.716Z,19.40
2022-10-08T05:39:46.011Z,17.50
2022-10-08T05:42:17.048Z,16.50
2022-10-08T05:44:53.961Z,16.70
2022-10-08T05:47:27.308Z,17.50
2022-10-08T05:50:04.934Z,18.70
2022-10-08T05:52:33.927Z,18.50
2022-10-08T05:55:06.058Z,18.50
2022-10-08T05:57:34.726Z,18.40
2022-10-08T06:00:09.666Z,18.70
2022-10-08T06:02:41.369Z,20.50
2022-10-08T06:05:12.922Z,19.00
2022-10-08T06:07:44.306Z,20.90
2022-10-08T06:10:13.016Z,19.70
2022-10-08T06:12:41.652Z,20.50
2022-10-08T06:15:11.014Z,19.10
2022-10-08T06:17:41.329Z,18.70
2022-10-08T06:20:11.923Z,19.40
2022-10-08T06:23:32.278Z,20.10
2022-10-08T06:26:03.548Z,18.50
2022-10-08T06:28:38.950Z,19.80
2022-10-08T06:31:09.034Z,21.20
2022-10-08T06:33:39.201Z,21.50
2022-10-08T06:36:21.170Z,22.10
2022-10-08T06:38:55.526Z,20.70
2022-10-08T06:41:25.687Z,20.70
2022-10-08T06:43:57.313Z,18.60
2022-10-08T06:46:26.215Z,19.00
2022-10-08T06:48:55.028Z,17.70
2022-10-08T06:51:23.857Z,18.20
2022-10-08T06:53:55.394Z,17.80
2022-10-08T06:56:27.070Z,19.40
2022-10-08T06:58:56.638Z,16.60
2022-10-08T07:01:43.474Z,17.70
2022-10-08T07:18:26.559Z,17.30
2022-10-08T07:21:02.563Z,16.00
2022-10-08T07:23:36.680Z,15.30
2022-10-08T07:26:18.615Z,16.70
2022-10-08T07:28:55.382Z,14.20
2022-10-08T07:31:32.962Z,15.20
2022-10-08T07:34:06.626Z,17.80
2022-10-08T07:36:36.909Z,17.60
2022-10-08T07:52:44.600Z,15.60
2022-10-08T07:55:13.650Z,16.40
2022-10-08T07:57:42.467Z,16.00
2022-10-08T08:00:12.716Z,15.00
2022-10-08T08:02:44.898Z,17.30
2022-10-08T08:05:16.334Z,13.80
2022-10-08T08:07:52.393Z,13.70
2022-10-08T08:10:23.905Z,13.60
2022-10-08T08:12:54.447Z,13.50
2022-10-08T08:15:24.638Z,17.70
2022-10-08T08:17:53.765Z,66.80
2022-10-08T08:20:24.169Z,13.60
2022-10-08T08:27:22.770Z,12.80
2022-10-08T08:29:54.427Z,12.60
2022-10-08T08:32:28.254Z,11.90
2022-10-08T08:34:58.254Z,12.10
2022-10-08T08:37:27.750Z,13.40
2022-10-08T08:39:57.240Z,12.50
2022-10-08T08:42:51.194Z,11.10
2022-10-08T08:45:47.579Z,11.10
2022-10-08T08:48:23.365Z,11.70
2022-10-08T08:50:56.719Z,10.40
2022-10-08T08:53:28.339Z,9.80
2022-10-08T08:56:02.638Z,10.80
2022-10-08T08:58:35.558Z,11.40
2022-10-08T09:01:10.337Z,12.40
2022-10-08T09:03:57.814Z,11.60
2022-10-08T09:06:31.866Z,16.10
2022-10-08T09:09:03.461Z,9.00
2022-10-08T09:11:33.249Z,8.60
2022-10-08T09:14:36.550Z,8.20
2022-10-08T09:17:16.472Z,9.00
2022-10-08T09:19:48.773Z,8.50
2022-10-08T09:22:26.426Z,9.50
2022-10-08T09:25:01.964Z,9.30
2022-10-08T09:27:58.498Z,9.30
2022-10-08T09:30:48.261Z,11.20
2022-10-08T09:33:32.575Z,9.30
2022-10-08T09:36:03.334Z,9.10
2022-10-08T09:38:37.757Z,7.20
2022-10-08T09:41:19.773Z,7.40
2022-10-08T09:44:09.892Z,7.40
2022-10-08T09:46:38.880Z,6.70
2022-10-08T09:49:29.233Z,6.80
2022-10-08T09:52:24.185Z,6.50
2022-10-08T09:55:10.499Z,7.80
2022-10-08T09:57:48.275Z,8.10
2022-10-08T10:00:26.620Z,7.90
2022-10-08T10:02:58.398Z,6.50
2022-10-08T10:05:30.689Z,7.00
2022-10-08T10:08:00.317Z,7.90
2022-10-08T10:13:16.173Z,7.40
2022-10-08T10:15:54.051Z,6.00
2022-10-08T10:18:36.221Z,5.80
2022-10-08T10:21:16.178Z,6.40
2022-10-08T10:24:38.166Z,4.60
2022-10-08T10:27:17.227Z,5.50
2022-10-08T10:30:07.895Z,6.00
2022-10-08T10:32:51.493Z,5.40
2022-10-08T10:35:28.150Z,5.90
2022-10-08T10:38:06.010Z,6.20
2022-10-08T10:40:45.653Z,6.20
2022-10-08T10:43:46.791Z,6.60
2022-10-08T10:46:37.082Z,6.30
2022-10-08T10:52:22.577Z,5.40
2022-10-08T10:55:09.674Z,7.00
2022-10-08T10:57:39.993Z,7.20
2022-10-08T11:00:20.997Z,6.90
2022-10-08T11:03:08.126Z,8.70
2022-10-08T11:05:41.366Z,5.50
2022-10-08T11:08:17.320Z,8.00
2022-10-08T11:11:05.041Z,7.40
2022-10-08T11:13:44.206Z,7.20
2022-10-08T11:16:31.649Z,8.10
2022-10-08T11:19:04.592Z,6.70
2022-10-08T11:21:43.623Z,6.70
2022-10-08T11:24:56.625Z,6.20
2022-10-08T11:27:31.530Z,5.20
2022-10-08T11:30:16.740Z,5.20
2022-10-08T11:32:52.145Z,7.20
2022-10-08T11:35:27.708Z,5.70
2022-10-08T11:37:58.285Z,6.10
2022-10-08T11:40:56.351Z,4.50
2022-10-08T11:43:52.573Z,5.20
2022-10-08T11:46:31.694Z,5.60
2022-10-08T11:49:02.753Z,5.20
2022-10-08T11:51:36.114Z,5.90
2022-10-08T11:54:08.007Z,6.40
2022-10-08T11:56:40.844Z,6.10
2022-10-08T11:59:29.180Z,6.00
2022-10-08T12:02:01.915Z,6.60
2022-10-08T12:04:36.604Z,7.40
2022-10-08T12:07:24.095Z,6.30
2022-10-08T12:10:05.424Z,7.20
2022-10-08T12:12:50.904Z,8.00
2022-10-08T12:15:25.937Z,6.90
2022-10-08T12:18:01.241Z,7.90
2022-10-08T12:20:33.549Z,7.20
2022-10-08T12:23:32.455Z,6.90
2022-10-08T12:26:02.331Z,9.40
2022-10-08T12:28:38.715Z,7.40
2022-10-08T12:31:18.484Z,8.40
2022-10-08T12:34:20.169Z,7.40
2022-10-08T12:36:55.450Z,8.60
2022-10-08T12:39:37.336Z,7.90
2022-10-08T12:42:33.049Z,8.60
2022-10-08T12:45:13.899Z,7.90
2022-10-08T12:47:56.949Z,7.80
2022-10-08T12:50:52.276Z,8.00
2022-10-08T12:53:21.326Z,7.20
2022-10-08T12:55:56.650Z,7.10
2022-10-08T12:58:30.290Z,6.30
2022-10-08T13:01:03.362Z,5.50
2022-10-08T13:03:32.335Z,6.80
2022-10-08T13:06:16.198Z,7.00
2022-10-08T13:08:45.564Z,5.70
2022-10-08T13:11:16.339Z,6.40
2022-10-08T13:13:51.488Z,6.70
2022-10-08T13:16:23.550Z,6.30
2022-10-08T13:19:00.716Z,5.70
2022-10-08T13:21:32.418Z,5.20
2022-10-08T13:24:52.904Z,7.40
2022-10-08T13:27:23.399Z,6.70
2022-10-08T13:29:53.968Z,6.80
2022-10-08T13:32:26.295Z,8.20
2022-10-08T13:35:00.580Z,7.50
2022-10-08T13:37:36.613Z,6.40
2022-10-08T13:40:13.105Z,6.90
2022-10-08T13:42:48.833Z,7.30
2022-10-08T13:47:51.729Z,7.60
2022-10-08T13:50:22.953Z,7.10
2022-10-08T13:52:55.107Z,7.40
2022-10-08T13:55:30.057Z,7.20
2022-10-08T13:58:02.377Z,8.30
2022-10-08T14:00:34.040Z,7.60
2022-10-08T14:03:05.389Z,8.00
2022-10-08T14:05:41.755Z,8.10
2022-10-08T14:08:18.396Z,8.30
2022-10-08T14:10:51.196Z,7.30
2022-10-08T14:13:20.308Z,8.50
2022-10-08T14:15:50.796Z,8.90
2022-10-08T14:18:21.573Z,8.90
2022-10-08T14:20:53.838Z,9.40
2022-10-08T14:23:23.531Z,8.20
2022-10-08T14:25:54.280Z,7.80
2022-10-08T14:28:24.536Z,7.90
2022-10-08T14:30:54.927Z,7.60
2022-10-08T14:33:24.873Z,9.20
2022-10-08T14:35:56.072Z,9.80
2022-10-08T14:38:26.612Z,10.20
2022-10-08T14:40:55.227Z,11.10
2022-10-08T14:43:27.575Z,8.00
2022-10-08T14:46:00.198Z,10.50
2022-10-08T14:48:30.608Z,9.70
2022-10-08T14:51:01.698Z,11.00
2022-10-08T14:53:32.997Z,10.90
2022-10-08T14:56:13.170Z,11.40
2022-10-08T14:58:43.943Z,10.50
2022-10-08T15:01:15.803Z,10.50
2022-10-08T15:03:46.342Z,11.60
2022-10-08T15:06:18.741Z,12.40
2022-10-08T15:08:48.673Z,12.60
2022-10-08T15:11:20.521Z,13.20
2022-10-08T15:13:50.265Z,12.20
2022-10-08T15:16:19.343Z,11.80
2022-10-08T15:18:48.893Z,13.40
2022-10-08T15:21:19.296Z,14.40
2022-10-08T15:23:50.189Z,11.60
2022-10-08T15:26:19.899Z,11.80
2022-10-08T15:28:54.162Z,12.70
2022-10-08T15:31:26.114Z,11.30
2022-10-08T15:33:59.214Z,12.20
2022-10-08T15:36:32.433Z,11.30
2022-10-08T15:39:09.133Z,11.40
2022-10-08T15:41:42.462Z,10.20
2022-10-08T15:44:18.901Z,3.60
2022-10-08T15:46:49.452Z,10.20
2022-10-08T15:49:18.285Z,10.40
2022-10-08T15:51:49.403Z,11.80
2022-10-08T15:54:19.093Z,9.40
2022-10-08T15:56:49.415Z,10.90
2022-10-08T15:59:19.068Z,10.20
2022-10-08T16:01:48.653Z,10.60
2022-10-08T16:04:18.134Z,10.20
2022-10-08T16:06:48.491Z,10.20
2022-10-08T16:09:19.844Z,10.30
2022-10-08T16:11:49.649Z,7.90
2022-10-08T16:14:21.962Z,7.00
2022-10-08T16:16:51.174Z,7.40
2022-10-08T16:19:26.750Z,5.80
2022-10-08T16:21:58.662Z,6.30
2022-10-08T16:24:28.620Z,6.30
2022-10-08T16:26:58.731Z,5.50
2022-10-08T16:29:28.282Z,5.60
2022-10-08T16:31:57.763Z,5.10
2022-10-08T16:34:28.899Z,4.20
2022-10-08T16:37:00.957Z,4.40
2022-10-08T16:39:31.558Z,4.80
2022-10-08T16:42:01.483Z,5.10
2022-10-08T16:44:32.590Z,5.00
2022-10-08T16:47:02.448Z,4.30
2022-10-08T16:49:31.894Z,5.30
2022-10-08T16:52:05.393Z,5.10
2022-10-08T16:54:36.530Z,5.90
2022-10-08T16:57:06.042Z,5.40
2022-10-08T16:59:34.911Z,5.80
2022-10-08T17:02:05.079Z,6.70
2022-10-08T17:04:40.434Z,5.30
2022-10-08T17:07:09.423Z,6.60
2022-10-08T17:09:42.841Z,6.90
2022-10-08T17:12:19.641Z,8.00
2022-10-08T17:14:51.052Z,7.10
2022-10-08T17:17:21.960Z,4.80
2022-10-08T17:19:52.290Z,6.40
2022-10-08T17:22:35.190Z,6.80
2022-10-08T17:25:07.094Z,6.60
2022-10-08T17:27:44.282Z,7.20
2022-10-08T17:30:13.618Z,10.00
2022-10-08T17:32:47.507Z,12.00
2022-10-08T17:35:17.731Z,8.10
2022-10-08T17:37:54.701Z,8.80
2022-10-08T17:40:26.209Z,9.20
2022-10-08T17:42:54.862Z,8.60
2022-10-08T17:45:24.625Z,8.40
2022-10-08T17:47:53.858Z,8.20
2022-10-08T17:50:24.431Z,8.30
2022-10-08T17:52:59.093Z,7.90
2022-10-08T17:55:29.881Z,9.10
2022-10-08T17:58:00.412Z,11.90
2022-10-08T18:00:30.250Z,9.80
2022-10-08T18:03:00.310Z,11.70
2022-10-08T18:05:30.685Z,11.30
2022-10-08T18:08:01.254Z,10.90
2022-10-08T18:10:32.055Z,11.40
2022-10-08T18:13:02.494Z,12.50
2022-10-08T18:15:37.306Z,11.80
2022-10-08T18:18:08.539Z,9.20
2022-10-08T18:20:38.530Z,9.20
2022-10-08T18:23:09.763Z,10.20
2022-10-08T18:25:40.982Z,9.70
2022-10-08T18:28:11.578Z,10.30
2022-10-08T18:30:42.202Z,10.60
2022-10-08T18:33:12.483Z,9.30
2022-10-08T18:35:41.733Z,8.60
2022-10-08T18:38:12.452Z,9.00
2022-10-08T18:40:41.344Z,11.30
2022-10-08T18:43:10.600Z,8.20
2022-10-08T18:45:42.372Z,8.90
2022-10-08T18:48:12.302Z,8.00
2022-10-08T18:50:42.072Z,8.30
2022-10-08T18:53:19.514Z,9.70
2022-10-08T18:55:51.764Z,8.60
2022-10-08T18:58:26.361Z,7.50
2022-10-08T19:00:58.474Z,7.30
2022-10-08T19:03:28.182Z,9.70
2022-10-08T19:05:57.221Z,8.20
2022-10-08T19:08:26.556Z,9.30
2022-10-08T19:10:56.156Z,9.40
2022-10-08T19:13:25.230Z,8.70
2022-10-08T19:15:54.270Z,8.70
2022-10-08T19:18:25.086Z,8.10
2022-10-08T19:20:57.282Z,8.80
2022-10-08T19:28:11.936Z,7.60
2022-10-08T19:30:42.936Z,7.90
2022-10-08T19:35:50.432Z,8.00
2022-10-08T19:38:24.813Z,6.20
2022-10-08T19:40:54.211Z,7.20
2022-10-08T19:43:24.502Z,5.30
2022-10-08T19:45:55.399Z,6.00
2022-10-08T19:48:27.382Z,4.20
2022-10-08T19:50:58.532Z,4.00
2022-10-08T19:53:31.031Z,4.00
2022-10-08T19:56:10.251Z,4.20
2022-10-08T19:58:46.254Z,5.20
2022-10-08T20:01:23.915Z,4.90
2022-10-08T20:03:55.562Z,4.10
2022-10-08T20:06:27.517Z,3.90
2022-10-08T20:09:01.171Z,5.40
2022-10-08T20:11:32.079Z,3.40
2022-10-08T20:14:01.865Z,3.30
2022-10-08T20:16:37.118Z,4.00
2022-10-08T20:19:08.950Z,4.00
2022-10-08T20:21:38.964Z,3.70
2022-10-08T20:24:12.939Z,3.70
2022-10-08T20:26:48.044Z,3.20
2022-10-08T20:29:20.263Z,3.80
2022-10-08T20:31:54.499Z,3.50
2022-10-08T20:34:31.626Z,4.10
2022-10-08T20:37:02.803Z,3.70
2022-10-08T20:39:35.089Z,4.30
2022-10-08T20:42:04.511Z,3.60
2022-10-08T20:44:33.056Z,3.60
2022-10-08T20:47:05.485Z,3.90
2022-10-08T20:49:36.490Z,3.80
2022-10-08T20:52:07.294Z,3.60
2022-10-08T20:54:36.709Z,3.40
2022-10-08T20:57:15.811Z,3.40
2022-10-08T20:59:45.315Z,4.10
2022-10-08T21:02:19.913Z,5.00
2022-10-08T21:04:51.235Z,4.70
2022-10-08T21:07:21.498Z,7.70
2022-10-08T21:09:52.915Z,4.70
2022-10-08T21:12:23.112Z,4.30
2022-10-08T21:14:52.192Z,3.80
2022-10-08T21:17:23.846Z,3.80
2022-10-08T21:19:52.505Z,3.90
2022-10-08T21:22:25.032Z,4.30
2022-10-08T21:24:57.362Z,4.00
2022-10-08T21:27:27.884Z,4.70
2022-10-08T21:29:58.789Z,4.60
2022-10-08T21:32:29.799Z,3.90
2022-10-08T21:35:00.579Z,5.90
2022-10-08T21:37:30.780Z,4.40
2022-10-08T21:39:59.487Z,4.50
2022-10-08T21:42:29.326Z,5.40
2022-10-08T21:44:59.357Z,6.50
2022-10-08T21:47:29.227Z,5.40
2022-10-08T21:49:58.946Z,6.40
2022-10-08T21:52:32.451Z,4.20
2022-10-08T21:55:01.574Z,5.30
2022-10-08T21:57:32.748Z,6.90
2022-10-08T22:00:05.167Z,6.30
2022-10-08T22:02:45.253Z,6.70
2022-10-08T22:05:15.292Z,7.10
2022-10-08T22:07:45.972Z,6.80
2022-10-08T22:10:16.175Z,6.60
2022-10-08T22:12:45.264Z,5.70
2022-10-08T22:15:17.902Z,6.90
2022-10-08T22:17:47.945Z,6.80
2022-10-08T22:20:18.231Z,6.30
2022-10-08T22:22:48.725Z,6.80
2022-10-08T22:25:17.837Z,6.80
2022-10-08T22:27:46.926Z,6.50
2022-10-08T22:30:16.474Z,5.10
2022-10-08T22:32:45.616Z,6.80
2022-10-08T22:35:15.383Z,6.20
2022-10-08T22:37:45.672Z,5.80
2022-10-08T22:40:14.998Z,5.80
2022-10-08T22:42:46.136Z,5.30
2022-10-08T22:45:17.960Z,5.80
2022-10-08T22:47:48.764Z,6.00
2022-10-08T22:50:18.951Z,6.70
2022-10-08T22:52:50.561Z,5.80
2022-10-08T22:55:22.648Z,6.20
2022-10-08T22:57:53.474Z,5.50
2022-10-08T23:00:23.959Z,5.00
2022-10-08T23:02:52.990Z,5.40
2022-10-08T23:05:21.966Z,5.50
2022-10-08T23:07:56.908Z,5.80
2022-10-08T23:10:26.738Z,5.60
2022-10-08T23:12:57.081Z,5.50
2022-10-08T23:15:27.448Z,6.30
2022-10-08T23:17:58.173Z,6.50
2022-10-08T23:20:26.923Z,6.80
2022-10-08T23:23:00.547Z,5.30
2022-10-08T23:25:30.202Z,5.30
2022-10-08T23:27:59.450Z,6.10
2022-10-08T23:30:42.538Z,4.50
2022-10-08T23:33:13.750Z,5.10
2022-10-08T23:35:44.723Z,6.60
2022-10-08T23:38:16.637Z,4.90
2022-10-08T23:40:46.542Z,4.80
2022-10-08T23:43:18.443Z,4.60
2022-10-08T23:45:47.833Z,4.10
2022-10-08T23:48:17.992Z,4.10
2022-10-08T23:50:51.259Z,4.90
2022-10-08T23:53:21.684Z,3.90
2022-10-08T23:55:51.809Z,4.00
2022-10-08T23:58:22.989Z,4.70
